Redwood City, CA (94063)

5:24 PM PDT on August 29, 2014 (GMT -0700)
Centennial | Change Station
CLOSE
Current Station
Personal Weather Station
Location: Redwood City, CA
Elevation: 10 ft
Nearby Weather Stations

Elev 10 ft 37.50 °N, 122.24 °W | Updated 9 minutes ago

Mostly Cloudy
Mostly Cloudy
76.4 °F
Feels Like 78 °F
N
3.0
Wind Variable Wind from SE
Gusts 12.0 mph

Today
High -- | Low -- °F
--% Chance of Precip.
Yesterday
High -- | Low -- °F
Precip. -- in
6:36 AM 7:41 PM
Waxing Crescent, 17% visible
Pressure 29.90 in
Visibility 10.0 miles
Clouds Few 5000 ft
Mostly Cloudy 18000 ft
Heat Index 78 °F
Dew Point 56 °F
Humidity 50%
Rainfall 0.00 in
Snow Depth Not available.
UV 2 out of 12
Pollen 7.40 out of 12
PM2.5 Good
Flu Activity Not available.
METAR KSQL 292350Z 28012KT 10SM FEW050 BKN180 24/13 A2990

More Conditions Fewer Conditions

Pressure 29.90 in
Visibility 10.0 miles
Clouds Few 5000 ft
Mostly Cloudy 18000 ft
Heat Index 78 °F
Dew Point 56 °F
Humidity 50%
Rainfall 0.00 in
Snow Depth Not available.
UV 2 out of 12
Pollen 7.40 out of 12
PM2.5 Good
Flu Activity Not available.
METAR KSQL 292350Z 28012KT 10SM FEW050 BKN180 24/13 A2990

More Conditions Fewer Conditions

10-Day Weather Forecast

Almanac

Astronomy

Aug. 29, 2014 Rise Set
Actual Time 6:36 AM PDT 7:41 PM PDT
Civil Twilight 6:09 AM PDT 8:08 PM PDT
Nautical Twilight 5:37 AM PDT 8:40 PM PDT
Astronomical Twilight 5:04 AM PDT 9:13 PM PDT
Moon 10:25 AM PDT (8/29) 9:48 PM PDT (8/29)
Length of Visible Light 13h 59m
Length of Day
13h 05m
Tomorrow will be 2m 17s shorter.
Waxing Crescent, 17% of the Moon is Illuminated
Today
Waxing Crescent
Sep 2
First Quarter
Sep 8
Full
Sep 15
Last Quarter
Sep 24
New

Today's Extremes

State Highs State Lows

Community

WunderPhotos

Upload Photos

1,748,384 photos uploaded!

Nearby

Air Quality

  Air Quality AQ Index Pollutant
Yesterday Good
PM2.5
Yesterday Good
OZONE
Current Good
PM2.5
Friday Good
PM2.5
Saturday Good
PM2.5
Sunday Good
OZONE
Monday Good
OZONE
Tuesday Good
PM2.5
Wednesday Good
OZONE

Snow Depth

Station Depth Elevation
Hagan's Meadow 0 in 8000 ft
Leavitt Meadows 0 in 7200 ft
Summit Meadow 0 in 9122 ft
CSS Lab 0 in 6900 ft
Monitor Pass 0 in 8350 ft

Earthquake Activity

City Distance Mag. Time & Date
Ridgemark, California 73 miles 3.5 4:32 PM PDT
2014-08-29
The Geysers, California 97 miles 2.7 2:53 PM PDT
2014-08-29
Ridgemark, California 73 miles 3.0 2:44 PM PDT
2014-08-29
Napa, California 52 miles 2.6 11:57 AM PDT
2014-08-27
Minimum magnitude displayed is 2.5.

Coastal Water Temperatures

Place Temperature
No Stations Reporting

Nearby Weather Stations